Bolton, MA

3:02 PM EDT on August 30, 2016 (GMT -0400)
Horseshoe Lane | | Change Station

Elev 300 ft 42.43 °N, 71.66 °W | Updated 4 seconds ago

Clear
Clear
81.1 °F
Feels Like 82 °F
N
0.0
Wind Variable Wind from WNW
Gusts 7.0 mph

Today
High -- | Low -- °F
--% Chance of Precip.
Yesterday
High -- | Low -- °F
Precip. -- in
Pressure 30.09 in
Visibility 10.0 miles
Clouds Clear
Heat Index 82 °F
Dew Point 53 °F
Humidity 50%
Rainfall 0.00 in
Snow Depth Not available.
6:10 AM 7:23 PM
Waning Crescent, 3% visible
METAR KFIT 301852Z AUTO 26007KT 230V300 10SM CLR 28/11 A3010 RMK AO2 SLP190 T02780106
Pressure 30.09 in
Visibility 10.0 miles
Clouds Clear
Heat Index 82 °F
Dew Point 53 °F
Humidity 50%
Rainfall 0.00 in
Snow Depth Not available.
6:10 AM 7:23 PM
Waning Crescent, 3% visible
METAR KFIT 301852Z AUTO 26007KT 230V300 10SM CLR 28/11 A3010 RMK AO2 SLP190 T02780106

10-Day Weather Forecast

Almanac

Astronomy

Aug. 30, 2016 Rise Set
Actual Time
Civil Twilight
Nautical Twilight
Astronomical Twilight
Moon
Length of Visible Light
Length of Day
Tomorrow will be .
, % of the Moon is Illuminated

Today's Extremes

State Highs State Lows

Community

WunderPhotos

Upload Photos

1,935,879 photos uploaded!

WunderBlog® & News

Nearby

Air Quality

  Air Quality AQ Index Pollutant
Not available.

Snow Depth

Station Depth Elevation

Earthquake Activity

City Distance Mag. Time & Date
Minimum magnitude displayed is 2.5.

Coastal Water Temperatures

Place Temperature

Stations

Nearby Weather Stations

Station Location Temp. Windchill Dew Point Humidity Wind Precip. Elev Updated Type
                   

Watches & Warnings

There are currently no watches in effect.